sensor_id;sensor_type;location;lat;lon;timestamp;temperature;humidity
11385;DHT22;5747;56.748;13.882;2024-01-30T00:01:13;2.70;99.90
11385;DHT22;5747;56.748;13.882;2024-01-30T00:03:42;2.90;99.90
11385;DHT22;5747;56.748;13.882;2024-01-30T00:06:11;2.90;99.90
11385;DHT22;5747;56.748;13.882;2024-01-30T00:08:39;2.90;99.90
11385;DHT22;5747;56.748;13.882;2024-01-30T00:11:09;2.80;99.90
11385;DHT22;5747;56.748;13.882;2024-01-30T00:13:37;2.50;99.90
11385;DHT22;5747;56.748;13.882;2024-01-30T00:16:05;2.40;99.90
11385;DHT22;5747;56.748;13.882;2024-01-30T00:18:34;2.50;99.90
11385;DHT22;5747;56.748;13.882;2024-01-30T00:21:02;2.50;99.90
11385;DHT22;5747;56.748;13.882;2024-01-30T00:23:30;2.50;99.90
11385;DHT22;5747;56.748;13.882;2024-01-30T00:25:59;2.40;99.90
11385;DHT22;5747;56.748;13.882;2024-01-30T00:28:28;2.50;99.90
11385;DHT22;5747;56.748;13.882;2024-01-30T00:30:56;2.70;99.90
11385;DHT22;5747;56.748;13.882;2024-01-30T00:33:24;2.80;99.90
11385;DHT22;5747;56.748;13.882;2024-01-30T00:35:52;2.80;99.90
11385;DHT22;5747;56.748;13.882;2024-01-30T00:38:21;2.80;99.90
11385;DHT22;5747;56.748;13.882;2024-01-30T00:40:49;2.90;99.90
11385;DHT22;5747;56.748;13.882;2024-01-30T00:43:18;2.80;99.90
11385;DHT22;5747;56.748;13.882;2024-01-30T00:45:49;2.70;99.90
11385;DHT22;5747;56.748;13.882;2024-01-30T00:48:19;2.80;99.90
11385;DHT22;5747;56.748;13.882;2024-01-30T00:50:47;2.90;99.90
11385;DHT22;5747;56.748;13.882;2024-01-30T00:53:15;2.90;99.90
11385;DHT22;5747;56.748;13.882;2024-01-30T00:55:43;2.90;99.90
11385;DHT22;5747;56.748;13.882;2024-01-30T00:58:11;2.80;99.90
11385;DHT22;5747;56.748;13.882;2024-01-30T01:00:40;2.80;99.90
11385;DHT22;5747;56.748;13.882;2024-01-30T01:03:09;2.80;99.90
11385;DHT22;5747;56.748;13.882;2024-01-30T01:05:37;2.80;99.90
11385;DHT22;5747;56.748;13.882;2024-01-30T01:08:06;2.80;99.90
11385;DHT22;5747;56.748;13.882;2024-01-30T01:10:34;2.80;99.90
11385;DHT22;5747;56.748;13.882;2024-01-30T01:13:03;2.70;99.90
11385;DHT22;5747;56.748;13.882;2024-01-30T01:15:31;2.80;99.90
11385;DHT22;5747;56.748;13.882;2024-01-30T01:17:59;2.80;99.90
11385;DHT22;5747;56.748;13.882;2024-01-30T01:20:28;2.80;99.90
11385;DHT22;5747;56.748;13.882;2024-01-30T01:22:56;2.60;99.90
11385;DHT22;5747;56.748;13.882;2024-01-30T01:25:25;2.50;99.90
11385;DHT22;5747;56.748;13.882;2024-01-30T01:27:53;2.50;99.90
11385;DHT22;5747;56.748;13.882;2024-01-30T01:30:21;2.60;99.90
11385;DHT22;5747;56.748;13.882;2024-01-30T01:32:49;2.50;99.90
11385;DHT22;5747;56.748;13.882;2024-01-30T01:35:22;2.50;99.90
11385;DHT22;5747;56.748;13.882;2024-01-30T01:37:53;2.50;99.90
11385;DHT22;5747;56.748;13.882;2024-01-30T01:40:23;2.60;99.90
11385;DHT22;5747;56.748;13.882;2024-01-30T01:42:53;2.70;99.90
11385;DHT22;5747;56.748;13.882;2024-01-30T01:45:21;2.80;99.90
11385;DHT22;5747;56.748;13.882;2024-01-30T01:47:51;2.90;99.90
11385;DHT22;5747;56.748;13.882;2024-01-30T01:50:20;3.00;99.90
11385;DHT22;5747;56.748;13.882;2024-01-30T01:52:50;3.00;99.90
11385;DHT22;5747;56.748;13.882;2024-01-30T01:55:21;2.90;99.90
11385;DHT22;5747;56.748;13.882;2024-01-30T01:57:53;2.80;99.90
11385;DHT22;5747;56.748;13.882;2024-01-30T02:00:21;2.30;99.90
11385;DHT22;5747;56.748;13.882;2024-01-30T02:02:50;2.20;99.90
11385;DHT22;5747;56.748;13.882;2024-01-30T02:05:18;2.10;99.90
11385;DHT22;5747;56.748;13.882;2024-01-30T02:07:47;2.10;99.90
11385;DHT22;5747;56.748;13.882;2024-01-30T02:10:15;2.10;99.90
11385;DHT22;5747;56.748;13.882;2024-01-30T02:12:45;2.30;99.90
11385;DHT22;5747;56.748;13.882;2024-01-30T02:15:13;2.40;99.90
11385;DHT22;5747;56.748;13.882;2024-01-30T02:17:41;2.30;99.90
11385;DHT22;5747;56.748;13.882;2024-01-30T02:20:10;2.40;99.90
11385;DHT22;5747;56.748;13.882;2024-01-30T02:22:41;2.50;99.90
11385;DHT22;5747;56.748;13.882;2024-01-30T02:25:11;2.50;99.90
11385;DHT22;5747;56.748;13.882;2024-01-30T02:27:39;2.30;99.90
11385;DHT22;5747;56.748;13.882;2024-01-30T02:30:08;2.10;99.90
11385;DHT22;5747;56.748;13.882;2024-01-30T02:32:36;2.00;99.90
11385;DHT22;5747;56.748;13.882;2024-01-30T02:35:04;2.00;99.90
11385;DHT22;5747;56.748;13.882;2024-01-30T02:37:33;1.70;99.90
11385;DHT22;5747;56.748;13.882;2024-01-30T02:40:02;1.50;99.90
11385;DHT22;5747;56.748;13.882;2024-01-30T02:42:31;1.60;99.90
11385;DHT22;5747;56.748;13.882;2024-01-30T02:44:59;1.70;99.90
11385;DHT22;5747;56.748;13.882;2024-01-30T02:47:27;1.90;99.90
11385;DHT22;5747;56.748;13.882;2024-01-30T02:49:56;2.20;99.90
11385;DHT22;5747;56.748;13.882;2024-01-30T02:52:24;2.30;99.90
11385;DHT22;5747;56.748;13.882;2024-01-30T02:54:52;2.20;99.90
11385;DHT22;5747;56.748;13.882;2024-01-30T02:57:22;2.30;99.90
11385;DHT22;5747;56.748;13.882;2024-01-30T02:59:50;2.30;99.90
11385;DHT22;5747;56.748;13.882;2024-01-30T03:02:18;2.50;99.90
11385;DHT22;5747;56.748;13.882;2024-01-30T03:04:46;2.60;99.90
11385;DHT22;5747;56.748;13.882;2024-01-30T03:07:15;2.60;99.90
11385;DHT22;5747;56.748;13.882;2024-01-30T03:09:43;2.60;99.90
11385;DHT22;5747;56.748;13.882;2024-01-30T03:12:11;2.70;99.90
11385;DHT22;5747;56.748;13.882;2024-01-30T03:14:41;2.70;99.90
11385;DHT22;5747;56.748;13.882;2024-01-30T03:17:09;2.70;99.90
11385;DHT22;5747;56.748;13.882;2024-01-30T03:19:37;2.70;99.90
11385;DHT22;5747;56.748;13.882;2024-01-30T03:22:05;2.60;99.90
11385;DHT22;5747;56.748;13.882;2024-01-30T03:24:33;2.70;99.90
11385;DHT22;5747;56.748;13.882;2024-01-30T03:27:02;2.70;99.90
11385;DHT22;5747;56.748;13.882;2024-01-30T03:29:30;2.70;99.90
11385;DHT22;5747;56.748;13.882;2024-01-30T03:31:59;2.80;99.90
11385;DHT22;5747;56.748;13.882;2024-01-30T03:34:28;2.70;99.90
11385;DHT22;5747;56.748;13.882;2024-01-30T03:36:56;2.70;99.90
11385;DHT22;5747;56.748;13.882;2024-01-30T03:39:24;2.60;99.90
11385;DHT22;5747;56.748;13.882;2024-01-30T03:41:52;2.60;99.90
11385;DHT22;5747;56.748;13.882;2024-01-30T03:44:20;2.70;99.90
11385;DHT22;5747;56.748;13.882;2024-01-30T03:46:49;2.70;99.90
11385;DHT22;5747;56.748;13.882;2024-01-30T03:49:18;2.70;99.90
11385;DHT22;5747;56.748;13.882;2024-01-30T03:51:47;2.70;99.90
11385;DHT22;5747;56.748;13.882;2024-01-30T03:54:15;2.80;99.90
11385;DHT22;5747;56.748;13.882;2024-01-30T03:56:44;2.80;99.90
11385;DHT22;5747;56.748;13.882;2024-01-30T03:59:12;2.80;99.90
11385;DHT22;5747;56.748;13.882;2024-01-30T04:01:40;2.80;99.90
11385;DHT22;5747;56.748;13.882;2024-01-30T04:04:08;2.80;99.90
11385;DHT22;5747;56.748;13.882;2024-01-30T04:06:38;2.90;99.90
11385;DHT22;5747;56.748;13.882;2024-01-30T04:09:06;2.90;99.90
11385;DHT22;5747;56.748;13.882;2024-01-30T04:11:34;2.90;99.90
11385;DHT22;5747;56.748;13.882;2024-01-30T04:14:02;2.90;99.90
11385;DHT22;5747;56.748;13.882;2024-01-30T04:16:30;2.90;99.90
11385;DHT22;5747;56.748;13.882;2024-01-30T04:18:59;2.90;99.90
11385;DHT22;5747;56.748;13.882;2024-01-30T04:21:27;2.90;99.90
11385;DHT22;5747;56.748;13.882;2024-01-30T04:23:57;2.90;99.90
11385;DHT22;5747;56.748;13.882;2024-01-30T04:26:25;2.90;99.90
11385;DHT22;5747;56.748;13.882;2024-01-30T04:28:53;2.80;99.90
11385;DHT22;5747;56.748;13.882;2024-01-30T04:31:21;3.00;99.90
11385;DHT22;5747;56.748;13.882;2024-01-30T04:33:49;3.00;99.90
11385;DHT22;5747;56.748;13.882;2024-01-30T04:36:18;2.60;99.90
11385;DHT22;5747;56.748;13.882;2024-01-30T04:38:46;2.50;99.90
11385;DHT22;5747;56.748;13.882;2024-01-30T04:41:18;2.30;99.90
11385;DHT22;5747;56.748;13.882;2024-01-30T04:43:46;2.50;99.90
11385;DHT22;5747;56.748;13.882;2024-01-30T04:46:14;2.70;99.90
11385;DHT22;5747;56.748;13.882;2024-01-30T04:48:43;2.80;99.90
11385;DHT22;5747;56.748;13.882;2024-01-30T04:51:11;2.80;99.90
11385;DHT22;5747;56.748;13.882;2024-01-30T04:53:39;2.80;99.90
11385;DHT22;5747;56.748;13.882;2024-01-30T04:56:07;2.90;99.90
11385;DHT22;5747;56.748;13.882;2024-01-30T04:58:37;2.90;99.90
11385;DHT22;5747;56.748;13.882;2024-01-30T05:01:05;3.00;99.90
11385;DHT22;5747;56.748;13.882;2024-01-30T05:03:33;2.90;99.90
11385;DHT22;5747;56.748;13.882;2024-01-30T05:06:02;2.70;99.90
11385;DHT22;5747;56.748;13.882;2024-01-30T05:08:30;2.70;99.90
11385;DHT22;5747;56.748;13.882;2024-01-30T05:11:00;2.70;99.90
11385;DHT22;5747;56.748;13.882;2024-01-30T05:13:30;2.80;99.90
11385;DHT22;5747;56.748;13.882;2024-01-30T05:16:01;2.60;99.90
11385;DHT22;5747;56.748;13.882;2024-01-30T05:18:30;2.50;99.90
11385;DHT22;5747;56.748;13.882;2024-01-30T05:20:58;2.60;99.90
11385;DHT22;5747;56.748;13.882;2024-01-30T05:23:26;2.80;99.90
11385;DHT22;5747;56.748;13.882;2024-01-30T05:25:54;2.90;99.90
11385;DHT22;5747;56.748;13.882;2024-01-30T05:28:23;2.90;99.90
11385;DHT22;5747;56.748;13.882;2024-01-30T05:30:51;2.80;99.90
11385;DHT22;5747;56.748;13.882;2024-01-30T05:33:20;2.60;99.90
11385;DHT22;5747;56.748;13.882;2024-01-30T05:35:49;2.70;99.90
11385;DHT22;5747;56.748;13.882;2024-01-30T05:38:17;2.80;99.90
11385;DHT22;5747;56.748;13.882;2024-01-30T05:40:45;2.60;99.90
11385;DHT22;5747;56.748;13.882;2024-01-30T05:43:13;2.60;99.90
11385;DHT22;5747;56.748;13.882;2024-01-30T05:45:41;2.80;99.90
11385;DHT22;5747;56.748;13.882;2024-01-30T05:48:10;2.90;99.90
11385;DHT22;5747;56.748;13.882;2024-01-30T05:50:39;2.80;99.90
11385;DHT22;5747;56.748;13.882;2024-01-30T05:53:07;2.90;99.90
11385;DHT22;5747;56.748;13.882;2024-01-30T05:55:35;2.90;99.90
11385;DHT22;5747;56.748;13.882;2024-01-30T05:58:04;2.80;99.90
11385;DHT22;5747;56.748;13.882;2024-01-30T06:00:32;2.70;99.90
11385;DHT22;5747;56.748;13.882;2024-01-30T06:03:00;2.80;99.90
11385;DHT22;5747;56.748;13.882;2024-01-30T06:05:29;2.90;99.90
11385;DHT22;5747;56.748;13.882;2024-01-30T06:07:59;2.90;99.90
11385;DHT22;5747;56.748;13.882;2024-01-30T06:10:27;2.90;99.90
11385;DHT22;5747;56.748;13.882;2024-01-30T06:12:55;3.00;99.90
11385;DHT22;5747;56.748;13.882;2024-01-30T06:15:24;3.00;99.90
11385;DHT22;5747;56.748;13.882;2024-01-30T06:17:52;3.00;99.90
11385;DHT22;5747;56.748;13.882;2024-01-30T06:20:21;2.90;99.90
11385;DHT22;5747;56.748;13.882;2024-01-30T06:22:49;2.80;99.90
11385;DHT22;5747;56.748;13.882;2024-01-30T06:25:19;2.70;99.90
11385;DHT22;5747;56.748;13.882;2024-01-30T06:27:47;2.80;99.90
11385;DHT22;5747;56.748;13.882;2024-01-30T06:30:15;2.70;99.90
11385;DHT22;5747;56.748;13.882;2024-01-30T06:32:44;2.70;99.90
11385;DHT22;5747;56.748;13.882;2024-01-30T06:35:12;2.60;99.90
11385;DHT22;5747;56.748;13.882;2024-01-30T06:37:40;2.40;99.90
11385;DHT22;5747;56.748;13.882;2024-01-30T06:40:09;2.20;99.90
11385;DHT22;5747;56.748;13.882;2024-01-30T06:42:38;2.20;99.90
11385;DHT22;5747;56.748;13.882;2024-01-30T06:45:07;2.30;99.90
11385;DHT22;5747;56.748;13.882;2024-01-30T06:47:36;2.50;99.90
11385;DHT22;5747;56.748;13.882;2024-01-30T06:50:05;2.70;99.90
11385;DHT22;5747;56.748;13.882;2024-01-30T06:52:33;2.70;99.90
11385;DHT22;5747;56.748;13.882;2024-01-30T06:55:02;2.60;99.90
11385;DHT22;5747;56.748;13.882;2024-01-30T06:57:30;2.70;99.90
11385;DHT22;5747;56.748;13.882;2024-01-30T07:00:00;2.60;99.90
11385;DHT22;5747;56.748;13.882;2024-01-30T07:02:28;2.50;99.90
11385;DHT22;5747;56.748;13.882;2024-01-30T07:04:56;2.50;99.90
11385;DHT22;5747;56.748;13.882;2024-01-30T07:07:25;2.70;99.90
11385;DHT22;5747;56.748;13.882;2024-01-30T07:09:53;2.70;99.90
11385;DHT22;5747;56.748;13.882;2024-01-30T07:12:24;2.90;99.90
11385;DHT22;5747;56.748;13.882;2024-01-30T07:14:53;2.90;99.90
11385;DHT22;5747;56.748;13.882;2024-01-30T07:17:24;2.90;99.90
11385;DHT22;5747;56.748;13.882;2024-01-30T07:19:52;2.90;99.90
11385;DHT22;5747;56.748;13.882;2024-01-30T07:22:21;2.90;99.90
11385;DHT22;5747;56.748;13.882;2024-01-30T07:24:49;2.80;99.90
11385;DHT22;5747;56.748;13.882;2024-01-30T07:27:19;2.70;99.90
11385;DHT22;5747;56.748;13.882;2024-01-30T07:29:48;2.60;99.90
11385;DHT22;5747;56.748;13.882;2024-01-30T07:32:16;2.50;99.90
11385;DHT22;5747;56.748;13.882;2024-01-30T07:34:46;2.50;99.90
11385;DHT22;5747;56.748;13.882;2024-01-30T07:37:32;2.60;99.90
11385;DHT22;5747;56.748;13.882;2024-01-30T07:40:01;2.80;99.90
11385;DHT22;5747;56.748;13.882;2024-01-30T07:42:30;2.90;99.90
11385;DHT22;5747;56.748;13.882;2024-01-30T07:44:59;2.90;99.90
11385;DHT22;5747;56.748;13.882;2024-01-30T07:47:27;2.90;99.90
11385;DHT22;5747;56.748;13.882;2024-01-30T07:49:57;3.00;99.90
11385;DHT22;5747;56.748;13.882;2024-01-30T07:52:25;3.00;99.90
11385;DHT22;5747;56.748;13.882;2024-01-30T07:54:54;3.00;99.90
11385;DHT22;5747;56.748;13.882;2024-01-30T07:57:22;3.00;99.90
11385;DHT22;5747;56.748;13.882;2024-01-30T07:59:50;3.00;99.90
11385;DHT22;5747;56.748;13.882;2024-01-30T08:02:18;2.90;99.90
11385;DHT22;5747;56.748;13.882;2024-01-30T08:04:47;2.90;99.90
11385;DHT22;5747;56.748;13.882;2024-01-30T08:07:18;2.90;99.90
11385;DHT22;5747;56.748;13.882;2024-01-30T08:09:46;3.10;99.90
11385;DHT22;5747;56.748;13.882;2024-01-30T08:12:14;3.10;99.90
11385;DHT22;5747;56.748;13.882;2024-01-30T08:14:42;3.00;99.90
11385;DHT22;5747;56.748;13.882;2024-01-30T08:17:10;3.10;99.90
11385;DHT22;5747;56.748;13.882;2024-01-30T08:19:39;3.10;99.90
11385;DHT22;5747;56.748;13.882;2024-01-30T08:22:07;3.10;99.90
11385;DHT22;5747;56.748;13.882;2024-01-30T08:24:36;3.20;99.90
11385;DHT22;5747;56.748;13.882;2024-01-30T08:27:07;3.10;99.90
11385;DHT22;5747;56.748;13.882;2024-01-30T08:29:36;3.10;99.90
11385;DHT22;5747;56.748;13.882;2024-01-30T08:32:05;3.10;99.90
11385;DHT22;5747;56.748;13.882;2024-01-30T08:34:34;3.10;99.90
11385;DHT22;5747;56.748;13.882;2024-01-30T08:37:02;3.10;99.90
11385;DHT22;5747;56.748;13.882;2024-01-30T08:39:30;3.20;99.90
11385;DHT22;5747;56.748;13.882;2024-01-30T08:42:00;3.30;99.90
11385;DHT22;5747;56.748;13.882;2024-01-30T08:44:28;3.30;99.90
11385;DHT22;5747;56.748;13.882;2024-01-30T08:46:56;3.30;99.90
11385;DHT22;5747;56.748;13.882;2024-01-30T08:49:26;3.30;99.90
11385;DHT22;5747;56.748;13.882;2024-01-30T08:51:57;3.30;99.90
11385;DHT22;5747;56.748;13.882;2024-01-30T08:54:26;3.30;99.90
11385;DHT22;5747;56.748;13.882;2024-01-30T08:56:54;3.20;99.90
11385;DHT22;5747;56.748;13.882;2024-01-30T08:59:24;3.20;99.90
11385;DHT22;5747;56.748;13.882;2024-01-30T09:01:52;3.20;99.90
11385;DHT22;5747;56.748;13.882;2024-01-30T09:04:37;3.20;99.90
11385;DHT22;5747;56.748;13.882;2024-01-30T09:07:06;3.20;99.90
11385;DHT22;5747;56.748;13.882;2024-01-30T09:09:37;3.20;99.90
11385;DHT22;5747;56.748;13.882;2024-01-30T09:12:07;3.20;99.90
11385;DHT22;5747;56.748;13.882;2024-01-30T09:14:39;3.20;99.90
11385;DHT22;5747;56.748;13.882;2024-01-30T09:17:07;3.30;99.90
11385;DHT22;5747;56.748;13.882;2024-01-30T09:19:36;3.30;99.90
11385;DHT22;5747;56.748;13.882;2024-01-30T09:22:05;3.20;99.90
11385;DHT22;5747;56.748;13.882;2024-01-30T09:24:33;3.30;99.90
11385;DHT22;5747;56.748;13.882;2024-01-30T09:27:01;3.40;99.90
11385;DHT22;5747;56.748;13.882;2024-01-30T09:29:29;3.50;99.90
11385;DHT22;5747;56.748;13.882;2024-01-30T09:31:59;3.60;99.90
11385;DHT22;5747;56.748;13.882;2024-01-30T09:34:27;3.60;99.90
11385;DHT22;5747;56.748;13.882;2024-01-30T09:36:55;3.60;99.90
11385;DHT22;5747;56.748;13.882;2024-01-30T09:39:24;3.60;99.90
11385;DHT22;5747;56.748;13.882;2024-01-30T09:41:59;3.70;99.90
11385;DHT22;5747;56.748;13.882;2024-01-30T09:44:30;3.80;99.90
11385;DHT22;5747;56.748;13.882;2024-01-30T09:47:00;3.80;99.90
11385;DHT22;5747;56.748;13.882;2024-01-30T09:49:32;3.90;99.90
11385;DHT22;5747;56.748;13.882;2024-01-30T09:52:00;3.90;99.90
11385;DHT22;5747;56.748;13.882;2024-01-30T09:54:30;3.80;99.90
11385;DHT22;5747;56.748;13.882;2024-01-30T09:57:03;3.80;99.90
11385;DHT22;5747;56.748;13.882;2024-01-30T09:59:32;3.80;99.90
11385;DHT22;5747;56.748;13.882;2024-01-30T10:02:02;4.00;99.90
11385;DHT22;5747;56.748;13.882;2024-01-30T10:04:31;4.00;99.90
11385;DHT22;5747;56.748;13.882;2024-01-30T10:07:02;3.80;99.90
11385;DHT22;5747;56.748;13.882;2024-01-30T10:09:32;3.70;99.90
11385;DHT22;5747;56.748;13.882;2024-01-30T10:12:01;3.90;99.90
11385;DHT22;5747;56.748;13.882;2024-01-30T10:14:30;4.00;99.90
11385;DHT22;5747;56.748;13.882;2024-01-30T10:16:59;4.00;99.90
11385;DHT22;5747;56.748;13.882;2024-01-30T10:19:28;4.10;99.90
11385;DHT22;5747;56.748;13.882;2024-01-30T10:21:56;4.20;99.90
11385;DHT22;5747;56.748;13.882;2024-01-30T10:24:25;4.20;99.90
11385;DHT22;5747;56.748;13.882;2024-01-30T10:26:53;4.20;99.90
11385;DHT22;5747;56.748;13.882;2024-01-30T10:29:21;4.20;99.90
11385;DHT22;5747;56.748;13.882;2024-01-30T10:31:58;4.10;99.90
11385;DHT22;5747;56.748;13.882;2024-01-30T10:34:28;4.20;99.90
11385;DHT22;5747;56.748;13.882;2024-01-30T10:37:00;4.30;99.90
11385;DHT22;5747;56.748;13.882;2024-01-30T10:39:32;4.40;99.90
11385;DHT22;5747;56.748;13.882;2024-01-30T10:42:05;4.40;99.90
11385;DHT22;5747;56.748;13.882;2024-01-30T10:44:37;4.30;99.90
11385;DHT22;5747;56.748;13.882;2024-01-30T10:47:11;4.40;99.90
11385;DHT22;5747;56.748;13.882;2024-01-30T10:49:41;4.40;99.90
11385;DHT22;5747;56.748;13.882;2024-01-30T10:52:10;4.50;99.90
11385;DHT22;5747;56.748;13.882;2024-01-30T10:54:40;4.50;99.90
11385;DHT22;5747;56.748;13.882;2024-01-30T10:57:21;4.50;99.90
11385;DHT22;5747;56.748;13.882;2024-01-30T10:59:53;4.60;99.90
11385;DHT22;5747;56.748;13.882;2024-01-30T11:02:23;4.70;99.90
11385;DHT22;5747;56.748;13.882;2024-01-30T11:04:56;4.80;99.90
11385;DHT22;5747;56.748;13.882;2024-01-30T11:07:26;4.90;99.90
11385;DHT22;5747;56.748;13.882;2024-01-30T11:10:01;4.90;99.90
11385;DHT22;5747;56.748;13.882;2024-01-30T11:12:32;4.80;99.90
11385;DHT22;5747;56.748;13.882;2024-01-30T11:15:05;4.70;99.90
11385;DHT22;5747;56.748;13.882;2024-01-30T11:17:44;4.80;99.90
11385;DHT22;5747;56.748;13.882;2024-01-30T11:20:15;4.70;99.90
11385;DHT22;5747;56.748;13.882;2024-01-30T11:22:45;4.80;99.90
11385;DHT22;5747;56.748;13.882;2024-01-30T11:25:15;4.70;99.90
11385;DHT22;5747;56.748;13.882;2024-01-30T11:27:46;4.60;99.90
11385;DHT22;5747;56.748;13.882;2024-01-30T11:30:22;4.80;99.90
11385;DHT22;5747;56.748;13.882;2024-01-30T11:33:05;5.00;99.90
11385;DHT22;5747;56.748;13.882;2024-01-30T11:35:35;5.00;99.90
11385;DHT22;5747;56.748;13.882;2024-01-30T11:38:04;5.10;99.90
11385;DHT22;5747;56.748;13.882;2024-01-30T11:40:34;5.10;99.90
11385;DHT22;5747;56.748;13.882;2024-01-30T11:43:05;5.20;99.90
11385;DHT22;5747;56.748;13.882;2024-01-30T11:45:35;5.20;99.90
11385;DHT22;5747;56.748;13.882;2024-01-30T11:48:03;5.20;99.90
11385;DHT22;5747;56.748;13.882;2024-01-30T11:50:33;5.30;99.90
11385;DHT22;5747;56.748;13.882;2024-01-30T11:53:02;5.30;99.90
11385;DHT22;5747;56.748;13.882;2024-01-30T11:55:31;5.30;99.90
11385;DHT22;5747;56.748;13.882;2024-01-30T11:58:01;5.30;99.90
11385;DHT22;5747;56.748;13.882;2024-01-30T12:00:32;5.30;99.90
11385;DHT22;5747;56.748;13.882;2024-01-30T12:03:02;5.30;99.90
11385;DHT22;5747;56.748;13.882;2024-01-30T12:05:32;5.30;99.90
11385;DHT22;5747;56.748;13.882;2024-01-30T12:08:00;5.20;99.90
11385;DHT22;5747;56.748;13.882;2024-01-30T12:10:29;5.20;99.90
11385;DHT22;5747;56.748;13.882;2024-01-30T12:12:58;5.10;99.90
11385;DHT22;5747;56.748;13.882;2024-01-30T12:15:26;5.10;99.90
11385;DHT22;5747;56.748;13.882;2024-01-30T12:18:05;5.10;99.90
11385;DHT22;5747;56.748;13.882;2024-01-30T12:20:34;4.90;99.90
11385;DHT22;5747;56.748;13.882;2024-01-30T12:23:03;4.90;99.90
11385;DHT22;5747;56.748;13.882;2024-01-30T12:25:31;5.00;99.90
11385;DHT22;5747;56.748;13.882;2024-01-30T12:28:00;4.90;99.90
11385;DHT22;5747;56.748;13.882;2024-01-30T12:30:29;5.00;99.90
11385;DHT22;5747;56.748;13.882;2024-01-30T12:32:57;5.10;99.90
11385;DHT22;5747;56.748;13.882;2024-01-30T12:35:27;5.30;99.90
11385;DHT22;5747;56.748;13.882;2024-01-30T12:37:59;5.30;99.90
11385;DHT22;5747;56.748;13.882;2024-01-30T12:40:28;5.30;99.90
11385;DHT22;5747;56.748;13.882;2024-01-30T12:42:56;5.40;99.90
11385;DHT22;5747;56.748;13.882;2024-01-30T12:45:25;5.40;99.90
11385;DHT22;5747;56.748;13.882;2024-01-30T12:47:53;5.40;99.90
11385;DHT22;5747;56.748;13.882;2024-01-30T12:50:22;5.40;99.90
11385;DHT22;5747;56.748;13.882;2024-01-30T12:52:52;5.40;99.90
11385;DHT22;5747;56.748;13.882;2024-01-30T12:55:20;5.40;99.90
11385;DHT22;5747;56.748;13.882;2024-01-30T12:57:48;5.40;99.90
11385;DHT22;5747;56.748;13.882;2024-01-30T13:00:17;5.50;99.90
11385;DHT22;5747;56.748;13.882;2024-01-30T13:02:45;5.60;99.90
11385;DHT22;5747;56.748;13.882;2024-01-30T13:05:13;5.60;99.90
11385;DHT22;5747;56.748;13.882;2024-01-30T13:07:42;5.50;99.90
11385;DHT22;5747;56.748;13.882;2024-01-30T13:10:12;5.60;99.90
11385;DHT22;5747;56.748;13.882;2024-01-30T13:12:40;5.50;99.90
11385;DHT22;5747;56.748;13.882;2024-01-30T13:15:09;5.50;99.90
11385;DHT22;5747;56.748;13.882;2024-01-30T13:17:38;5.50;99.90
11385;DHT22;5747;56.748;13.882;2024-01-30T13:20:07;5.60;99.90
11385;DHT22;5747;56.748;13.882;2024-01-30T13:22:38;5.40;99.90
11385;DHT22;5747;56.748;13.882;2024-01-30T13:25:07;5.50;99.90
11385;DHT22;5747;56.748;13.882;2024-01-30T13:27:37;5.50;99.90
11385;DHT22;5747;56.748;13.882;2024-01-30T13:30:07;5.50;99.90
11385;DHT22;5747;56.748;13.882;2024-01-30T13:32:36;5.40;99.90
11385;DHT22;5747;56.748;13.882;2024-01-30T13:35:05;5.30;99.90
11385;DHT22;5747;56.748;13.882;2024-01-30T13:37:33;5.20;99.90
11385;DHT22;5747;56.748;13.882;2024-01-30T13:40:02;5.10;99.90
11385;DHT22;5747;56.748;13.882;2024-01-30T13:42:38;5.00;99.90
11385;DHT22;5747;56.748;13.882;2024-01-30T13:45:07;5.10;99.90
11385;DHT22;5747;56.748;13.882;2024-01-30T13:47:37;5.00;99.90
11385;DHT22;5747;56.748;13.882;2024-01-30T13:50:06;5.00;99.90
11385;DHT22;5747;56.748;13.882;2024-01-30T13:52:35;5.10;99.90
11385;DHT22;5747;56.748;13.882;2024-01-30T13:55:11;5.20;99.90
11385;DHT22;5747;56.748;13.882;2024-01-30T13:57:41;5.20;99.90
11385;DHT22;5747;56.748;13.882;2024-01-30T14:00:10;5.10;99.90
11385;DHT22;5747;56.748;13.882;2024-01-30T14:02:39;5.20;99.90
11385;DHT22;5747;56.748;13.882;2024-01-30T14:05:08;5.10;99.90
11385;DHT22;5747;56.748;13.882;2024-01-30T14:07:37;5.00;99.90
11385;DHT22;5747;56.748;13.882;2024-01-30T14:10:07;5.10;99.90
11385;DHT22;5747;56.748;13.882;2024-01-30T14:12:42;5.10;99.90
11385;DHT22;5747;56.748;13.882;2024-01-30T14:15:11;5.10;99.90
11385;DHT22;5747;56.748;13.882;2024-01-30T14:17:54;5.10;99.90
11385;DHT22;5747;56.748;13.882;2024-01-30T14:20:23;5.10;99.90
11385;DHT22;5747;56.748;13.882;2024-01-30T14:22:51;5.00;99.90
11385;DHT22;5747;56.748;13.882;2024-01-30T14:25:20;5.00;99.90
11385;DHT22;5747;56.748;13.882;2024-01-30T14:27:50;4.90;99.90
11385;DHT22;5747;56.748;13.882;2024-01-30T14:30:18;4.90;99.90
11385;DHT22;5747;56.748;13.882;2024-01-30T14:32:46;4.90;99.90
11385;DHT22;5747;56.748;13.882;2024-01-30T14:35:16;4.80;99.90
11385;DHT22;5747;56.748;13.882;2024-01-30T14:37:44;4.70;99.90
11385;DHT22;5747;56.748;13.882;2024-01-30T14:40:12;4.70;99.90
11385;DHT22;5747;56.748;13.882;2024-01-30T14:42:40;4.60;99.90
11385;DHT22;5747;56.748;13.882;2024-01-30T14:45:10;4.60;99.90
11385;DHT22;5747;56.748;13.882;2024-01-30T14:47:38;4.50;99.90
11385;DHT22;5747;56.748;13.882;2024-01-30T14:50:08;4.50;99.90
11385;DHT22;5747;56.748;13.882;2024-01-30T14:52:37;4.40;99.90
11385;DHT22;5747;56.748;13.882;2024-01-30T14:55:07;4.40;99.90
11385;DHT22;5747;56.748;13.882;2024-01-30T14:57:36;4.40;99.90
11385;DHT22;5747;56.748;13.882;2024-01-30T15:00:06;4.40;99.90
11385;DHT22;5747;56.748;13.882;2024-01-30T15:02:37;4.40;99.90
11385;DHT22;5747;56.748;13.882;2024-01-30T15:05:05;4.30;99.90
11385;DHT22;5747;56.748;13.882;2024-01-30T15:07:34;4.40;99.90
11385;DHT22;5747;56.748;13.882;2024-01-30T15:10:07;4.30;99.90
11385;DHT22;5747;56.748;13.882;2024-01-30T15:12:37;4.40;99.90
11385;DHT22;5747;56.748;13.882;2024-01-30T15:15:07;4.30;99.90
11385;DHT22;5747;56.748;13.882;2024-01-30T15:17:38;4.30;99.90
11385;DHT22;5747;56.748;13.882;2024-01-30T15:20:07;4.30;99.90
11385;DHT22;5747;56.748;13.882;2024-01-30T15:22:36;4.20;99.90
11385;DHT22;5747;56.748;13.882;2024-01-30T15:25:05;4.30;99.90
11385;DHT22;5747;56.748;13.882;2024-01-30T15:27:34;4.30;99.90
11385;DHT22;5747;56.748;13.882;2024-01-30T15:30:03;4.10;99.90
11385;DHT22;5747;56.748;13.882;2024-01-30T15:32:31;4.20;99.90
11385;DHT22;5747;56.748;13.882;2024-01-30T15:35:01;4.10;99.90
11385;DHT22;5747;56.748;13.882;2024-01-30T15:37:32;4.10;99.90
11385;DHT22;5747;56.748;13.882;2024-01-30T15:40:00;4.10;99.90
11385;DHT22;5747;56.748;13.882;2024-01-30T15:42:29;4.20;99.90
11385;DHT22;5747;56.748;13.882;2024-01-30T15:44:57;4.20;99.90
11385;DHT22;5747;56.748;13.882;2024-01-30T15:47:26;4.20;99.90
11385;DHT22;5747;56.748;13.882;2024-01-30T15:49:54;4.10;99.90
11385;DHT22;5747;56.748;13.882;2024-01-30T15:52:24;4.10;99.90
11385;DHT22;5747;56.748;13.882;2024-01-30T15:54:52;4.00;99.90
11385;DHT22;5747;56.748;13.882;2024-01-30T15:57:20;4.00;99.90